Time;durP1;ratioP1;P1;durP2;ratioP2;P2;SDS_P1;SDS_P2;PMS_P1;PMS_P2;Temp;Humidity;BMP_temperature;BMP_pressure;BME280_temperature;BME280_humidity;BME280_pressure;Samples;Min_cycle;Max_cycle;Signal;HPM_P1;HPM_P2
2024/01/19 00:00:47;;;;;;;38.95;31.35;;;;;;;5.96;100.00;98703.41;5550615;32;34733;-75
2024/01/19 00:03:50;;;;;;;43.30;32.75;;;;;;;5.91;100.00;98703.13;5550597;32;34087;-74
2024/01/19 00:06:53;;;;;;;39.80;31.02;;;;;;;5.74;100.00;98709.50;5550577;32;34033;-75
2024/01/19 00:09:56;;;;;;;43.17;31.80;;;;;;;5.65;100.00;98727.19;5550491;32;34652;-74
2024/01/19 00:12:59;;;;;;;44.28;33.08;;;;;;;5.55;100.00;98731.84;5550281;32;33975;-75
2024/01/19 00:16:02;;;;;;;44.38;34.53;;;;;;;5.47;100.00;98730.09;5550277;32;35352;-73
2024/01/19 00:19:05;;;;;;;46.80;33.92;;;;;;;5.48;100.00;98738.78;5550297;32;33988;-72
2024/01/19 00:22:08;;;;;;;42.92;33.22;;;;;;;5.36;100.00;98733.13;5550135;32;34847;-74
2024/01/19 00:25:10;;;;;;;45.28;34.78;;;;;;;5.29;100.00;98752.41;5549946;32;34129;-74
2024/01/19 00:28:15;;;;;;;46.03;35.22;;;;;;;5.35;100.00;98772.75;5550687;32;34016;-73
2024/01/19 00:31:17;;;;;;;47.15;35.20;;;;;;;5.21;100.00;98772.50;5550521;32;34689;-74
2024/01/19 00:34:20;;;;;;;45.03;33.10;;;;;;;5.21;100.00;98777.75;5550229;32;34127;-74
2024/01/19 00:37:23;;;;;;;45.97;32.03;;;;;;;5.10;100.00;98787.84;5550255;32;34019;-75
2024/01/19 00:40:26;;;;;;;42.80;31.10;;;;;;;4.91;100.00;98789.06;5549353;32;34604;-74
2024/01/19 00:43:29;;;;;;;43.00;29.92;;;;;;;4.90;100.00;98811.06;5550062;32;34683;-73
2024/01/19 00:46:33;;;;;;;46.45;31.12;;;;;;;4.77;100.00;98802.91;5550166;32;34577;-72
2024/01/19 00:49:35;;;;;;;42.92;30.08;;;;;;;4.62;100.00;98820.34;5550015;32;34036;-74
2024/01/19 00:52:39;;;;;;;43.87;29.37;;;;;;;4.51;100.00;98847.78;5550037;32;34086;-73
2024/01/19 00:55:41;;;;;;;46.35;30.08;;;;;;;4.32;100.00;98869.12;5549964;32;34005;-73
2024/01/19 00:58:45;;;;;;;47.97;29.48;;;;;;;4.27;100.00;98874.06;5550004;32;33931;-73
2024/01/19 01:01:47;;;;;;;38.03;27.05;;;;;;;4.04;100.00;98876.53;5549898;32;34167;-73
2024/01/19 01:04:50;;;;;;;37.97;27.50;;;;;;;3.89;100.00;98886.00;5550118;32;34164;-73
2024/01/19 01:07:54;;;;;;;37.47;26.45;;;;;;;3.77;100.00;98901.25;5550230;32;34131;-73
2024/01/19 01:10:56;;;;;;;34.08;25.75;;;;;;;3.74;100.00;98892.88;5550032;32;35471;-73
2024/01/19 01:13:59;;;;;;;29.05;22.48;;;;;;;3.59;100.00;98905.78;5549896;32;33950;-73
2024/01/19 01:17:02;;;;;;;27.40;22.35;;;;;;;3.35;100.00;98908.31;5550110;32;33961;-74
2024/01/19 01:20:05;;;;;;;25.45;19.45;;;;;;;3.23;100.00;98920.88;5549254;32;34655;-73
2024/01/19 01:23:08;;;;;;;26.42;21.70;;;;;;;2.84;100.00;98938.00;5549935;32;34341;-73
2024/01/19 01:26:11;;;;;;;26.58;20.33;;;;;;;2.69;100.00;98942.97;5549116;32;33948;-72
2024/01/19 01:29:14;;;;;;;27.75;20.62;;;;;;;2.46;100.00;98965.37;5549657;32;33910;-72
2024/01/19 01:32:17;;;;;;;27.90;22.37;;;;;;;2.27;100.00;98957.69;5533698;32;34015;-74
2024/01/19 01:35:20;;;;;;;26.80;21.67;;;;;;;2.21;100.00;98960.91;5529451;32;34112;-72
2024/01/19 01:38:23;;;;;;;27.87;21.65;;;;;;;2.17;100.00;98982.13;5530287;32;34078;-73
2024/01/19 01:41:26;;;;;;;27.65;22.10;;;;;;;2.09;100.00;98983.81;5530528;32;33935;-73
2024/01/19 01:44:29;;;;;;;29.58;21.95;;;;;;;1.99;100.00;98968.19;5530327;32;33955;-73
2024/01/19 01:47:32;;;;;;;29.30;23.17;;;;;;;1.88;100.00;98975.44;5530604;32;34509;-72
2024/01/19 01:50:36;;;;;;;31.65;24.00;;;;;;;1.79;100.00;98976.34;5530782;32;33953;-74
2024/01/19 01:53:39;;;;;;;28.58;22.80;;;;;;;1.80;100.00;98991.03;5530458;32;34676;-74
2024/01/19 01:56:42;;;;;;;29.83;22.55;;;;;;;1.64;100.00;98991.69;5530174;32;34045;-73
2024/01/19 01:59:45;;;;;;;31.55;23.55;;;;;;;1.61;100.00;98994.56;5517002;32;32785;-73
2024/01/19 02:02:48;;;;;;;29.40;23.02;;;;;;;1.56;100.00;99002.00;5516637;32;34686;-74
2024/01/19 02:05:51;;;;;;;34.17;23.27;;;;;;;1.47;100.00;98992.44;5530331;32;34653;-74
2024/01/19 02:08:55;;;;;;;30.50;23.15;;;;;;;1.55;100.00;99008.22;5516681;32;35106;-74
2024/01/19 02:11:58;;;;;;;30.75;23.38;;;;;;;1.54;100.00;99030.09;5530066;32;34631;-73
2024/01/19 02:15:01;;;;;;;30.25;23.80;;;;;;;1.49;100.00;99038.38;5530113;32;34040;-73
2024/01/19 02:18:05;;;;;;;30.70;24.05;;;;;;;1.46;100.00;99053.50;5529957;32;33961;-73
2024/01/19 02:21:08;;;;;;;35.10;24.50;;;;;;;1.53;100.00;99068.47;5530219;32;33931;-73
2024/01/19 02:24:15;;;;;;;30.55;23.55;;;;;;;1.43;100.00;99059.84;5516236;32;34081;-74
2024/01/19 02:27:19;;;;;;;30.52;24.12;;;;;;;1.47;100.00;99058.59;5516296;32;33939;-73
2024/01/19 02:30:21;;;;;;;30.23;22.75;;;;;;;1.50;100.00;99067.94;5533283;32;34277;-74
2024/01/19 02:33:24;;;;;;;30.02;23.15;;;;;;;1.49;100.00;99082.81;5549039;32;34111;-73
2024/01/19 02:36:29;;;;;;;33.28;24.10;;;;;;;1.43;100.00;99088.59;5548970;32;34121;-73
2024/01/19 02:39:32;;;;;;;32.72;23.27;;;;;;;1.25;100.00;99091.09;5548606;32;34024;-73
2024/01/19 02:42:34;;;;;;;31.12;23.30;;;;;;;1.23;100.00;99081.75;5549253;32;33995;-73
2024/01/19 02:45:37;;;;;;;33.55;25.05;;;;;;;1.21;100.00;99081.09;5548893;32;34073;-72
2024/01/19 02:48:40;;;;;;;34.00;24.87;;;;;;;1.23;100.00;99079.13;5551000;32;33993;-73
2024/01/19 02:51:43;;;;;;;31.10;23.58;;;;;;;1.26;100.00;99100.56;5551291;32;34161;-73
2024/01/19 02:54:47;;;;;;;30.77;23.73;;;;;;;1.27;100.00;99102.22;5551638;32;34716;-72
2024/01/19 02:57:51;;;;;;;31.37;23.58;;;;;;;1.28;100.00;99111.72;5551135;32;33987;-72
2024/01/19 03:00:55;;;;;;;30.52;22.27;;;;;;;1.27;100.00;99130.13;5551230;32;34110;-72
2024/01/19 03:04:03;;;;;;;30.33;23.10;;;;;;;1.23;100.00;99137.44;5550454;32;34725;-72
2024/01/19 03:07:06;;;;;;;31.70;23.87;;;;;;;1.23;100.00;99142.66;5551183;32;34101;-72
2024/01/19 03:10:09;;;;;;;31.65;24.20;;;;;;;1.20;100.00;99135.13;5551121;32;33944;-73
2024/01/19 03:13:14;;;;;;;30.58;23.62;;;;;;;1.16;100.00;99138.94;5551084;32;33880;-73
2024/01/19 03:16:19;;;;;;;30.88;22.50;;;;;;;1.28;100.00;99142.25;5551045;32;34063;-73
2024/01/19 03:19:22;;;;;;;29.87;22.80;;;;;;;1.16;100.00;99143.38;5551019;32;34757;-72
2024/01/19 03:22:25;;;;;;;29.85;22.50;;;;;;;1.19;100.00;99156.97;5551450;32;34013;-72
2024/01/19 03:25:27;;;;;;;29.65;21.83;;;;;;;1.24;100.00;99170.44;5550222;32;34026;-69
2024/01/19 03:28:31;;;;;;;29.45;21.42;;;;;;;1.20;100.00;99173.47;5550905;32;34718;-71
2024/01/19 03:31:35;;;;;;;29.48;21.23;;;;;;;1.19;100.00;99167.41;5550042;32;35194;-72
2024/01/19 03:34:38;;;;;;;30.25;21.40;;;;;;;1.22;100.00;99174.12;5550899;32;34147;-72
2024/01/19 03:37:41;;;;;;;26.60;20.08;;;;;;;1.21;100.00;99188.19;5551158;32;33961;-72
2024/01/19 03:40:44;;;;;;;26.75;20.17;;;;;;;1.17;100.00;99197.22;5551321;32;34575;-73
2024/01/19 03:43:47;;;;;;;26.20;19.65;;;;;;;1.10;100.00;99181.31;5550314;32;33909;-72
2024/01/19 03:46:50;;;;;;;26.40;19.77;;;;;;;1.11;100.00;99185.56;5550131;32;35025;-72
2024/01/19 03:49:53;;;;;;;26.75;19.50;;;;;;;1.13;100.00;99182.78;5550084;32;33854;-72
2024/01/19 03:52:56;;;;;;;24.12;18.15;;;;;;;1.07;100.00;99178.94;5550768;32;34128;-73
2024/01/19 03:55:58;;;;;;;26.45;19.98;;;;;;;1.04;100.00;99183.63;5550565;32;34747;-72
2024/01/19 03:59:01;;;;;;;23.12;17.17;;;;;;;1.14;100.00;99200.13;5550230;32;34008;-72
2024/01/19 04:02:06;;;;;;;24.00;17.80;;;;;;;1.16;100.00;99219.91;5550741;32;34587;-72
2024/01/19 04:05:09;;;;;;;24.35;18.42;;;;;;;1.09;100.00;99208.37;5550647;32;35013;-72
2024/01/19 04:08:12;;;;;;;23.98;18.05;;;;;;;1.06;100.00;99219.09;5550921;32;34086;-72
2024/01/19 04:11:15;;;;;;;24.35;18.17;;;;;;;1.12;100.00;99221.16;5550677;32;34737;-73
2024/01/19 04:14:18;;;;;;;25.12;18.77;;;;;;;1.03;100.00;99211.53;5550521;32;33992;-73
2024/01/19 04:17:21;;;;;;;23.05;17.37;;;;;;;1.06;100.00;99226.09;5550522;32;34632;-73
2024/01/19 04:20:24;;;;;;;23.95;18.20;;;;;;;0.95;100.00;99226.22;5550659;32;34090;-73
2024/01/19 04:23:27;;;;;;;23.10;16.90;;;;;;;0.98;100.00;99224.16;5550995;32;34578;-73
2024/01/19 04:26:29;;;;;;;24.12;17.73;;;;;;;1.04;100.00;99217.56;5550697;32;33981;-72
2024/01/19 04:29:32;;;;;;;23.38;17.17;;;;;;;1.05;100.00;99214.00;5550450;32;34070;-72
2024/01/19 04:32:38;;;;;;;23.62;17.62;;;;;;;0.97;100.00;99216.47;5550574;32;34948;-72
2024/01/19 04:35:41;;;;;;;22.67;17.33;;;;;;;1.04;100.00;99233.25;5550707;32;34028;-72
2024/01/19 04:38:45;;;;;;;25.50;17.75;;;;;;;1.00;100.00;99232.69;5550688;32;33977;-72
2024/01/19 04:41:48;;;;;;;23.15;17.65;;;;;;;1.04;100.00;99233.25;5550684;32;33905;-71
2024/01/19 04:44:51;;;;;;;23.67;17.58;;;;;;;1.10;100.00;99259.66;5549608;32;33942;-72
2024/01/19 04:47:54;;;;;;;22.87;17.08;;;;;;;1.06;100.00;99265.28;5549359;32;34070;-72
2024/01/19 04:50:57;;;;;;;22.65;16.77;;;;;;;1.10;100.00;99264.06;5550370;32;33962;-72
2024/01/19 04:54:00;;;;;;;24.12;17.17;;;;;;;1.13;100.00;99282.06;5550457;32;34610;-73
2024/01/19 04:57:03;;;;;;;23.33;17.45;;;;;;;1.13;100.00;99288.09;5550342;32;33889;-75
2024/01/19 05:00:07;;;;;;;22.70;16.80;;;;;;;1.07;100.00;99272.13;5550353;32;33924;-71
2024/01/19 05:03:10;;;;;;;24.58;17.77;;;;;;;1.21;100.00;99277.00;5550369;32;33963;-72
2024/01/19 05:06:13;;;;;;;22.52;16.37;;;;;;;1.10;100.00;99287.56;5550459;32;33993;-72
2024/01/19 05:09:16;;;;;;;23.83;17.60;;;;;;;1.14;100.00;99294.16;5550065;32;33948;-73
2024/01/19 05:12:19;;;;;;;23.00;16.83;;;;;;;1.00;100.00;99269.25;5549311;32;34020;-72
2024/01/19 05:15:22;;;;;;;22.40;16.95;;;;;;;1.06;100.00;99294.84;5550120;32;34773;-73
2024/01/19 05:18:25;;;;;;;22.45;16.52;;;;;;;1.09;100.00;99305.00;5550022;32;34035;-73
2024/01/19 05:21:28;;;;;;;22.73;15.95;;;;;;;1.13;100.00;99297.72;5550103;32;33992;-72
2024/01/19 05:24:31;;;;;;;22.90;16.12;;;;;;;1.16;100.00;99306.09;5550103;32;34065;-72
2024/01/19 05:27:34;;;;;;;23.90;16.90;;;;;;;1.12;100.00;99314.34;5549610;32;34001;-72
2024/01/19 05:30:37;;;;;;;22.33;17.20;;;;;;;1.13;100.00;99329.06;5549168;32;34628;-72
2024/01/19 05:33:42;;;;;;;21.37;15.88;;;;;;;1.21;100.00;99344.91;5549942;32;34692;-72
2024/01/19 05:36:45;;;;;;;21.85;16.23;;;;;;;1.08;100.00;99345.13;5549080;32;34070;-72
2024/01/19 05:39:48;;;;;;;23.40;16.80;;;;;;;1.12;100.00;99345.69;5549611;32;33897;-73
2024/01/19 05:42:51;;;;;;;21.15;16.10;;;;;;;1.15;100.00;99358.50;5549750;32;33993;-73
2024/01/19 05:45:53;;;;;;;19.52;15.07;;;;;;;1.13;100.00;99357.78;5549785;32;34112;-72
2024/01/19 05:48:57;;;;;;;20.62;15.48;;;;;;;1.21;100.00;99365.81;5549825;32;33949;-72
2024/01/19 05:52:00;;;;;;;19.40;14.52;;;;;;;1.14;100.00;99372.53;5549310;32;33929;-72
2024/01/19 05:55:04;;;;;;;23.23;15.80;;;;;;;1.10;100.00;99386.81;5549015;32;33951;-71
2024/01/19 05:58:07;;;;;;;21.30;15.50;;;;;;;1.14;100.00;99399.47;5549540;32;35164;-72
2024/01/19 06:01:10;;;;;;;21.08;15.32;;;;;;;1.02;100.00;99389.22;5549536;32;34640;-71
2024/01/19 06:04:14;;;;;;;20.67;15.07;;;;;;;1.07;100.00;99384.44;5549387;32;33989;-72
2024/01/19 06:07:16;;;;;;;20.73;14.77;;;;;;;1.04;100.00;99389.94;5549440;32;34772;-72
2024/01/19 06:10:19;;;;;;;21.23;15.00;;;;;;;1.09;100.00;99401.66;5549698;32;34205;-72
2024/01/19 06:13:23;;;;;;;22.13;15.52;;;;;;;1.01;100.00;99406.72;5549223;32;34647;-72
2024/01/19 06:16:27;;;;;;;21.55;15.15;;;;;;;1.04;100.00;99416.88;5549365;32;33927;-71
2024/01/19 06:19:30;;;;;;;20.73;15.48;;;;;;;1.02;100.00;99418.78;5547945;32;34811;-72
2024/01/19 06:22:35;;;;;;;20.48;15.43;;;;;;;1.07;100.00;99419.22;5548605;32;34746;-72
2024/01/19 06:25:39;;;;;;;20.50;15.05;;;;;;;1.11;100.00;99420.63;5549378;32;34018;-72
2024/01/19 06:28:42;;;;;;;20.80;15.40;;;;;;;1.01;100.00;99422.37;5549004;32;34959;-74
2024/01/19 06:31:46;;;;;;;21.90;14.80;;;;;;;1.03;100.00;99437.91;5543440;32;184991;-72
2024/01/19 06:34:49;;;;;;;20.30;15.13;;;;;;;1.06;100.00;99445.50;5548874;32;34275;-73
2024/01/19 06:37:53;;;;;;;20.62;14.68;;;;;;;1.16;100.00;99459.44;5548713;32;34707;-72
2024/01/19 06:40:56;;;;;;;17.92;13.85;;;;;;;1.19;100.00;99480.88;5547738;32;34703;-72
2024/01/19 06:43:59;;;;;;;20.77;14.60;;;;;;;1.19;100.00;99486.09;5548078;32;34066;-73
2024/01/19 06:47:03;;;;;;;19.55;14.07;;;;;;;1.23;100.00;99481.44;5548500;32;34624;-72
2024/01/19 06:50:06;;;;;;;19.05;13.77;;;;;;;1.25;100.00;99490.00;5548017;32;34623;-73
2024/01/19 06:53:10;;;;;;;19.30;14.10;;;;;;;1.20;100.00;99494.78;5548618;32;35361;-74
2024/01/19 06:56:12;;;;;;;18.98;12.68;;;;;;;1.25;100.00;99508.28;5548393;32;34951;-74
2024/01/19 06:59:16;;;;;;;18.75;14.10;;;;;;;1.23;100.00;99511.00;5548232;32;34156;-73
2024/01/19 07:02:18;;;;;;;17.62;12.30;;;;;;;1.38;100.00;99519.34;5548608;32;33937;-74
2024/01/19 07:05:21;;;;;;;15.90;11.43;;;;;;;1.40;100.00;99516.59;5548699;32;34063;-74
2024/01/19 07:08:24;;;;;;;15.93;11.23;;;;;;;1.49;100.00;99521.03;5548471;32;34528;-75
2024/01/19 07:11:28;;;;;;;17.85;11.07;;;;;;;1.44;100.00;99551.97;5548483;32;34737;-74
2024/01/19 07:14:31;;;;;;;16.23;11.10;;;;;;;1.41;100.00;99546.97;5548206;32;34092;-74
2024/01/19 07:17:34;;;;;;;15.85;11.52;;;;;;;1.45;100.00;99548.41;5547496;32;35094;-75
2024/01/19 07:20:37;;;;;;;17.35;11.77;;;;;;;1.42;100.00;99562.53;5548158;32;33984;-74
2024/01/19 07:23:40;;;;;;;17.25;10.82;;;;;;;1.41;100.00;99573.94;5548045;32;34021;-74
2024/01/19 07:26:43;;;;;;;19.77;10.95;;;;;;;1.45;100.00;99577.97;5547293;32;34651;-74
2024/01/19 07:29:46;;;;;;;19.15;10.68;;;;;;;1.50;100.00;99574.97;5547354;32;33916;-74
2024/01/19 07:32:49;;;;;;;18.87;10.43;;;;;;;1.49;100.00;99586.38;5547880;32;33192;-75
2024/01/19 07:36:11;;;;;;;17.75;10.05;;;;;;;1.45;100.00;99580.59;5550800;32;34561;-73
2024/01/19 07:39:14;;;;;;;18.37;9.52;;;;;;;1.37;100.00;99574.31;5550565;32;35494;-74
2024/01/19 07:42:17;;;;;;;21.77;9.40;;;;;;;1.37;100.00;99569.94;5550637;32;33866;-74
2024/01/19 07:45:19;;;;;;;17.48;9.25;;;;;;;1.31;100.00;99571.28;5550802;32;34760;-76
2024/01/19 07:48:24;;;;;;;17.00;10.10;;;;;;;1.28;100.00;99589.00;5550614;32;34128;-73
2024/01/19 07:51:28;;;;;;;13.48;9.00;;;;;;;1.26;100.00;99583.06;5550490;32;33970;-72
2024/01/19 07:54:32;;;;;;;13.55;9.68;;;;;;;1.04;100.00;99598.88;5550795;32;33968;-70
2024/01/19 07:57:35;;;;;;;17.30;9.63;;;;;;;1.12;100.00;99610.34;5551010;32;34637;-70
2024/01/19 08:00:37;;;;;;;18.62;9.50;;;;;;;0.92;100.00;99610.34;5524323;32;34766;-71
2024/01/19 08:03:43;;;;;;;15.95;9.38;;;;;;;0.84;100.00;99622.22;5549649;32;33989;-70
2024/01/19 08:06:46;;;;;;;16.35;9.75;;;;;;;0.83;100.00;99632.78;5537037;32;34081;-70
2024/01/19 08:09:49;;;;;;;16.05;9.05;;;;;;;0.80;100.00;99618.22;5550377;32;35042;-69
2024/01/19 08:12:52;;;;;;;17.75;8.93;;;;;;;0.76;100.00;99621.19;5550484;32;33961;-69
2024/01/19 08:15:55;;;;;;;17.25;8.82;;;;;;;0.87;100.00;99631.59;5550869;32;34720;-72
2024/01/19 08:18:58;;;;;;;13.25;8.75;;;;;;;0.84;100.00;99619.59;5550454;32;34064;-70
2024/01/19 08:22:01;;;;;;;12.68;8.05;;;;;;;0.89;100.00;99619.22;5550328;32;33917;-70
2024/01/19 08:25:05;;;;;;;12.43;8.57;;;;;;;0.82;100.00;99612.87;5550430;32;33987;-69
2024/01/19 08:28:08;;;;;;;13.15;8.80;;;;;;;0.76;100.00;99619.41;5550292;32;33975;-73
2024/01/19 08:31:12;;;;;;;11.88;8.15;;;;;;;0.93;100.00;99619.81;5550491;32;34014;-74
2024/01/19 08:34:15;;;;;;;14.20;8.30;;;;;;;0.90;100.00;99607.84;5550343;32;34020;-72
2024/01/19 08:37:18;;;;;;;14.20;8.73;;;;;;;0.92;100.00;99613.75;5550278;32;33983;-72
2024/01/19 08:40:21;;;;;;;12.27;8.30;;;;;;;0.99;100.00;99635.81;5551425;32;34383;-72
2024/01/19 08:43:23;;;;;;;16.70;9.18;;;;;;;1.19;100.00;99658.53;5550301;32;33961;-73
2024/01/19 08:46:26;;;;;;;14.30;8.40;;;;;;;1.21;100.00;99681.91;5550023;32;34049;-73
2024/01/19 08:49:30;;;;;;;13.98;8.45;;;;;;;1.16;100.00;99676.25;5550337;32;33930;-72
2024/01/19 08:52:34;;;;;;;18.37;8.40;;;;;;;1.34;100.00;99687.78;5550195;32;34870;-72
2024/01/19 08:55:39;;;;;;;14.52;8.32;;;;;;;1.31;100.00;99688.03;5549945;32;34750;-72
2024/01/19 08:58:42;;;;;;;14.05;8.70;;;;;;;1.21;100.00;99690.56;5549911;32;34929;-73
2024/01/19 09:01:47;;;;;;;13.68;8.63;;;;;;;1.34;100.00;99707.88;5549886;32;34038;-72
2024/01/19 09:04:50;;;;;;;15.20;9.35;;;;;;;1.35;100.00;99720.81;5550223;32;34709;-73
2024/01/19 09:07:54;;;;;;;16.92;9.90;;;;;;;1.24;100.00;99707.78;5550229;32;34624;-72
2024/01/19 09:10:57;;;;;;;17.15;10.15;;;;;;;1.01;100.00;99722.72;5550585;32;32562;-72
2024/01/19 09:14:00;;;;;;;14.18;10.30;;;;;;;0.90;100.00;99724.50;5550265;32;33974;-73
2024/01/19 09:17:05;;;;;;;16.73;10.95;;;;;;;0.72;100.00;99724.22;5550144;32;34754;-73
2024/01/19 09:20:08;;;;;;;16.37;10.90;;;;;;;0.68;100.00;99744.47;5549898;32;33964;-73
2024/01/19 09:23:11;;;;;;;16.75;10.73;;;;;;;0.72;100.00;99742.47;5549945;32;33882;-72
2024/01/19 09:26:21;;;;;;;19.40;11.07;;;;;;;0.66;100.00;99737.72;5550021;32;34137;-73
2024/01/19 09:29:24;;;;;;;16.10;10.63;;;;;;;0.65;100.00;99742.13;5550217;32;33915;-73
2024/01/19 09:32:27;;;;;;;18.70;11.88;;;;;;;0.73;100.00;99751.94;5549825;32;35073;-73
2024/01/19 09:35:31;;;;;;;16.77;10.95;;;;;;;0.64;100.00;99763.94;5549556;32;33910;-72
2024/01/19 09:38:35;;;;;;;17.70;11.02;;;;;;;0.72;100.00;99765.97;5549866;32;33985;-73
2024/01/19 09:42:03;;;;;;;16.87;11.68;;;;;;;0.69;100.00;99769.62;5549867;32;34206;-72
2024/01/19 09:45:17;;;;;;;17.20;10.90;;;;;;;0.67;100.00;99765.50;5549793;32;33943;-73
2024/01/19 09:48:24;;;;;;;18.87;12.32;;;;;;;0.49;100.00;99767.75;5549594;32;34134;-73
2024/01/19 09:51:40;;;;;;;18.92;12.35;;;;;;;0.17;100.00;99770.22;5549837;32;34206;-73
2024/01/19 09:54:44;;;;;;;18.02;12.82;;;;;;;0.03;100.00;99783.50;5549737;32;33944;-72
2024/01/19 09:57:48;;;;;;;21.08;13.93;;;;;;;-0.01;100.00;99793.31;5548839;32;33925;-73
2024/01/19 10:00:52;;;;;;;24.55;16.35;;;;;;;-0.15;100.00;99805.72;5535981;32;34627;-73
2024/01/19 10:04:00;;;;;;;23.15;15.85;;;;;;;-0.38;100.00;99801.34;5549520;32;34743;-73
2024/01/19 10:07:03;;;;;;;23.50;16.25;;;;;;;-0.38;100.00;99802.19;5549475;32;34944;-72
2024/01/19 10:10:08;;;;;;;24.58;16.83;;;;;;;-0.41;100.00;99799.00;5548699;32;33973;-72
2024/01/19 10:13:11;;;;;;;27.20;17.58;;;;;;;-0.46;100.00;99800.16;5549424;32;34642;-73
2024/01/19 10:16:14;;;;;;;25.02;17.45;;;;;;;-0.37;100.00;99805.63;5549638;32;34017;-73
2024/01/19 10:19:20;;;;;;;23.38;17.27;;;;;;;-0.39;100.00;99815.34;5549379;32;34260;-73
2024/01/19 10:22:28;;;;;;;29.30;18.80;;;;;;;-0.35;100.00;99801.97;5549236;32;33997;-72
2024/01/19 10:25:33;;;;;;;23.25;16.90;;;;;;;-0.32;100.00;99799.16;5548694;32;33921;-72
2024/01/19 10:28:37;;;;;;;23.15;17.37;;;;;;;-0.34;100.00;99801.06;5549347;32;34136;-74
2024/01/19 10:31:41;;;;;;;24.85;18.33;;;;;;;-0.36;100.00;99808.13;5548495;32;34553;-73
2024/01/19 10:34:46;;;;;;;28.30;18.67;;;;;;;-0.30;100.00;99809.47;5551285;32;33150;-74
2024/01/19 10:37:49;;;;;;;30.35;20.83;;;;;;;-0.34;100.00;99828.88;5550631;32;34095;-73
2024/01/19 10:40:57;;;;;;;25.88;18.98;;;;;;;-0.40;100.00;99840.56;5548870;32;34107;-73
2024/01/19 10:44:11;;;;;;;27.20;19.70;;;;;;;-0.38;100.00;99853.47;5548490;32;34659;-75
2024/01/19 10:47:14;;;;;;;26.00;19.12;;;;;;;-0.40;100.00;99863.19;5550453;32;34007;-72
2024/01/19 10:50:18;;;;;;;28.30;20.45;;;;;;;-0.34;100.00;99867.97;5550164;32;34730;-74
2024/01/19 10:53:22;;;;;;;28.67;20.00;;;;;;;-0.33;100.00;99883.47;5550161;32;33897;-75
2024/01/19 10:56:26;;;;;;;8.73;4.93;;;;;;;-0.49;100.00;99894.19;5547987;32;34080;-73
2024/01/19 10:59:29;;;;;;;28.60;20.52;;;;;;;-0.45;100.00;99902.63;5548924;32;33947;-74
2024/01/19 11:02:32;;;;;;;30.52;20.50;;;;;;;-0.42;100.00;99923.22;5548908;32;34214;-72
2024/01/19 11:05:35;;;;;;;30.48;20.48;;;;;;;-0.45;100.00;99945.13;5548635;32;34123;-73
2024/01/19 11:08:39;;;;;;;31.23;21.80;;;;;;;-0.45;100.00;99950.34;5549376;32;34667;-73
2024/01/19 11:11:57;;;;;;;32.33;22.15;;;;;;;-0.48;100.00;99953.16;5551256;32;34958;-74
2024/01/19 11:15:06;;;;;;;30.05;22.05;;;;;;;-0.49;100.00;99959.34;5551033;32;34006;-74
2024/01/19 11:18:11;;;;;;;29.30;21.02;;;;;;;-0.55;100.00;99972.78;5550966;32;33947;-72
2024/01/19 11:21:15;;;;;;;32.17;20.80;;;;;;;-0.39;100.00;99974.31;5550800;32;34132;-74
2024/01/19 11:24:20;;;;;;;29.87;20.10;;;;;;;-0.45;100.00;99983.41;5550278;32;33937;-73
2024/01/19 11:27:40;;;;;;;31.25;19.87;;;;;;;-0.38;100.00;99989.81;5551328;32;34796;-73
2024/01/19 11:31:01;;;;;;;26.87;19.42;;;;;;;-0.34;100.00;99995.66;5545456;32;33859;-75
2024/01/19 11:34:05;;;;;;;27.33;20.12;;;;;;;-0.36;100.00;100002.75;5531685;32;34141;-74
2024/01/19 11:37:09;;;;;;;28.62;19.83;;;;;;;-0.38;100.00;100002.00;5531469;32;34195;-74
2024/01/19 11:40:24;;;;;;;24.50;19.23;;;;;;;-0.35;100.00;100010.47;5517701;32;33912;-74
2024/01/19 11:43:38;;;;;;;26.65;19.48;;;;;;;-0.39;100.00;100009.03;5531263;32;34610;-74
2024/01/19 11:46:42;;;;;;;28.20;19.27;;;;;;;-0.28;100.00;100005.66;5531391;32;34247;-73
2024/01/19 11:49:46;;;;;;;28.17;19.92;;;;;;;-0.36;100.00;100002.75;5531269;32;33996;-74
2024/01/19 11:52:54;;;;;;;30.17;20.65;;;;;;;-0.40;100.00;100002.16;5531281;32;34748;-74
2024/01/19 11:55:57;;;;;;;28.40;21.08;;;;;;;-0.40;100.00;99998.69;5531200;32;34986;-75
2024/01/19 11:59:00;;;;;;;30.37;21.75;;;;;;;-0.46;100.00;100005.16;5517921;32;34580;-75
2024/01/19 12:02:03;;;;;;;29.85;21.90;;;;;;;-0.44;100.00;100019.75;5531177;32;34621;-76
2024/01/19 12:05:09;;;;;;;29.90;20.33;;;;;;;-0.36;100.00;100021.00;5531410;32;34078;-76
2024/01/19 12:08:14;;;;;;;29.15;22.27;;;;;;;-0.44;100.00;100011.13;5517995;32;33982;-76
2024/01/19 12:11:17;;;;;;;30.85;22.55;;;;;;;-0.30;100.00;100016.19;5518042;32;34001;-76
2024/01/19 12:14:20;;;;;;;34.05;22.70;;;;;;;-0.32;100.00;100018.06;5530912;32;34608;-76
2024/01/19 12:17:23;;;;;;;32.08;22.02;;;;;;;-0.26;100.00;100019.41;5531567;32;34028;-77
2024/01/19 12:20:26;;;;;;;32.83;23.62;;;;;;;-0.31;100.00;100039.75;5530582;32;33929;-77
2024/01/19 12:23:32;;;;;;;31.27;22.75;;;;;;;-0.22;100.00;100034.72;5531357;32;33962;-76
2024/01/19 12:26:36;;;;;;;36.80;24.37;;;;;;;-0.22;100.00;100034.72;5517562;32;34061;-75
2024/01/19 12:29:39;;;;;;;35.45;23.20;;;;;;;-0.35;100.00;100054.78;5531012;32;34706;-75
2024/01/19 12:32:44;;;;;;;34.45;24.98;;;;;;;-0.26;100.00;100063.72;5549623;32;34036;-76
2024/01/19 12:35:48;;;;;;;38.25;25.33;;;;;;;-0.30;100.00;100057.06;5550450;32;34139;-77
2024/01/19 12:39:03;;;;;;;32.83;23.48;;;;;;;-0.37;100.00;100054.03;5552177;32;33908;-76
2024/01/19 12:42:08;;;;;;;32.95;23.00;;;;;;;-0.43;100.00;100057.06;5550860;32;34920;-77
2024/01/19 12:45:12;;;;;;;31.85;23.12;;;;;;;-0.39;100.00;100053.34;5550574;32;34844;-77
2024/01/19 12:48:15;;;;;;;35.85;23.75;;;;;;;-0.34;100.00;100058.22;5550863;32;33950;-77
2024/01/19 12:51:27;;;;;;;60.00;38.55;;;;;;;-0.31;100.00;100069.25;5550501;32;34102;-77
2024/01/19 12:54:44;;;;;;;34.58;23.17;;;;;;;-0.12;100.00;100068.81;5550551;32;34744;-76
2024/01/19 12:57:49;;;;;;;33.92;23.17;;;;;;;-0.01;100.00;100081.94;5550310;32;34222;-75
2024/01/19 13:01:03;;;;;;;30.15;22.48;;;;;;;-0.07;100.00;100098.00;5550247;32;34061;-77
2024/01/19 13:04:06;;;;;;;32.97;22.73;;;;;;;-0.14;100.00;100102.78;5550365;32;34156;-76
2024/01/19 13:07:21;;;;;;;31.75;22.83;;;;;;;-0.04;100.00;100116.84;5550330;32;34011;-74
2024/01/19 13:10:23;;;;;;;34.20;23.98;;;;;;;-0.06;100.00;100107.50;5549999;32;34788;-73
2024/01/19 13:13:27;;;;;;;32.05;23.48;;;;;;;0.03;100.00;100122.50;5549323;32;34098;-74
2024/01/19 13:16:30;;;;;;;32.72;23.40;;;;;;;-0.01;100.00;100118.44;5549419;32;34491;-74
2024/01/19 13:19:44;;;;;;;35.67;23.67;;;;;;;-0.05;100.00;100123.00;5550204;32;34684;-74
2024/01/19 13:23:02;;;;;;;35.45;24.85;;;;;;;-0.20;100.00;100121.50;5550181;32;34068;-73
2024/01/19 13:26:14;;;;;;;35.95;24.77;;;;;;;-0.18;100.00;100132.63;5550154;32;33995;-74
2024/01/19 13:29:17;;;;;;;33.85;23.75;;;;;;;-0.09;100.00;100145.03;5550099;32;33889;-74
2024/01/19 13:32:20;;;;;;;34.05;24.75;;;;;;;-0.07;100.00;100155.34;5548961;32;34565;-76
2024/01/19 13:35:24;;;;;;;33.45;23.38;;;;;;;-0.11;100.00;100151.31;5549297;32;33915;-75
2024/01/19 13:38:27;;;;;;;32.38;23.25;;;;;;;-0.03;100.00;100168.06;5550312;32;34994;-76
2024/01/19 13:41:30;;;;;;;37.25;25.17;;;;;;;-0.03;100.00;100170.69;5549924;32;33881;-76
2024/01/19 13:44:34;;;;;;;37.83;26.12;;;;;;;0.02;100.00;100166.91;5548825;32;35006;-76
2024/01/19 13:47:37;;;;;;;34.50;24.98;;;;;;;-0.02;100.00;100169.75;5550228;32;34627;-75
2024/01/19 13:50:40;;;;;;;38.00;25.98;;;;;;;-0.06;100.00;100183.09;5549750;32;34035;-75
2024/01/19 13:53:45;;;;;;;35.63;25.75;;;;;;;-0.03;100.00;100182.87;5550073;32;34230;-75
2024/01/19 13:56:49;;;;;;;37.50;26.27;;;;;;;0.05;100.00;100187.59;5549381;32;33887;-75
2024/01/19 13:59:53;;;;;;;35.30;24.85;;;;;;;0.09;100.00;100189.87;5549771;32;34127;-74
2024/01/19 14:02:57;;;;;;;33.50;24.65;;;;;;;0.17;100.00;100203.22;5549521;32;34177;-74